Kezdőlap
METAR-TAF:

METAR-TAF

Repülőterek :

Fort Riley, Kansas, Amerikai Egyesült Államok

földrajzi szélesség: 39-06N, földrajzi hosszúság: 096-46W, magasság: 325 m

Jelenlegi meteorológiai megfigyelések

A jelentés 31 perccel ezelõtt készült, 18:56 UTC
Délnyugati szél 8 kt
Hőmérséklet 36°C
Páratartalom 35%
Légköri nyomás
Látótávolság: 16.1 km
Derült ég

METAR: KFRI 131856Z AUTO 23008KT 10SM CLR 36/18 M RMK AO2 SLPNO T03630183 FZRANO $

Idő: 14:27 (19:27 UTC)

Előrejelzés

A jelentés 27 órával és 44 perccel ezelõtt készült, 15:43 UTC
Az előrejelzés 12-én 12 óra UTC és 13-én 18 óra UTC között érvényes
Dél-délkeleti szél 6 kt
Látótávolság 10 km, vagy több
Derült ég
12-én 20 óra UTC és 13-én 05 óra UTC között fokozatosan kialakuló
Déli szél 9 kt
Látótávolság 10 km, vagy több
Derült ég

TAF: KFRI 121543Z 1212/1318 16006KT 9999 SKC QNH3012INS BECMG 1220/1305 19009KT 9999 SKC QNH3006INS TX33/1221Z TN16/1212Z LAST NO AMDS 12/21Z NEXT 15/12Z

Meteorológiai megfigyelések és előrejelzések több, mint 4000 repülőtéren (METAR és TAF jelentéseket).

A térképen piros és sárga pontok jelzik az elérhető meteorológiai állomásokat.

Mozgassa az egeret a pont fölött, hogy megjelenjen az állomás neve.

Azután kattintson az időjárási megfigyelések és előrejelzések megtekintéséhez.

A térkép megváltoztatása: kattintson a fekete keresztel jelölt zöld gombra ráközelítéshez, a vonallal jelölt zöld gombra távolításhoz, vagy a zöld nyilakra a szomszédos térképek eléréséhez.


METAR-TAF: